Terminal Aerodrome Forecast
Issued by NWS Billings, MT

Home | Current Version | Previous Version | Text Only | Print | Product List | Glossary Off
Versions: 1 2 3 4 5 6 7 8 9 10 11 12 13 14 15 16 17 18 19 20 21 22 23 24 25 26 27 28 29 30 31 32 33 34

000
FTUS45 KBYZ 011133 AAA
TAFMLS
TAF AMD
KMLS 011133Z 0112/0212 30009KT 2SM FU FEW070
      TEMPO 0112/0115 6SM FU
     FM011500 33010KT P6SM SCT060
     FM012000 34011KT P6SM VCTS SCT060CB BKN100
     FM020300 02011G20KT P6SM VCTS SCT090CB=

USA.gov is the U.S. government's official web portal to all federal, state and local government web resources and services.